Main page
METAR-TAF:

METAR-TAF

Airports :

Dortmund Airport

Dortmund, Germany

latitude: 51-31N, longitude: 007-37E, elevation: 127 m

Current weather observation

The report was made 53 minutes ago, at 06:50 UTC
Wind 7 kt from the West/Southwest, varying between Southwest and West/Northwest
Temperature 12°C
Humidity 76%
Pressure 1021 hPa
Visibility 10 km or more
Few clouds at a height of 3300 ft
Broken clouds at a height of 3800 ft

METAR: EDLW 140650Z 25007KT 230V290 9999 FEW033 BKN038 12/08 Q1021

Time: 09:43 (07:43 UTC)

Forecast

The report was made 2 hours and 43 minutes ago, at 05:00 UTC
Forecast valid from 14 at 06 UTC to 15 at 06 UTC
Wind 8 kt from the West
Visibility 10 km or more
Broken clouds at a height of 3000 ft
Becoming
from 14 at 17 UTC to 14 at 19 UTC
Wind 3 kt from variable directions
Becoming
from 14 at 23 UTC to 15 at 01 UTC
Wind 6 kt from the Southwest

TAF: EDLW 140500Z 1406/1506 28008KT 9999 BKN030 BECMG 1417/1419 VRB03KT BECMG 1423/1501 23006KT

Weather observations and forecasts of more than 4000 airports (METAR and TAF reports).

The available stations are represented by yellow and red dots on the map.

Hover mouse over dot to see the name of the station.

Then click to see weather observations and forecasts.

To change the map : click on the green buttons with a black cross to zoom in, on the green button with a dash to zoom out, or on the green arrows for adjacent maps.


METAR-TAF: